Time;durP1;ratioP1;P1;durP2;ratioP2;P2;SDS_P1;SDS_P2;PMS_P1;PMS_P2;Temp;Humidity;BMP_temperature;BMP_pressure;BME280_temperature;BME280_humidity;BME280_pressure;Samples;Min_cycle;Max_cycle;Signal;HPM_P1;HPM_P2
2022/10/15 00:02:18;;;;;;;57.42;38.35;;;12.10;99.90;;;;;;5001211;28;88962;-33
2022/10/15 00:04:44;;;;;;;52.05;34.13;;;12.10;99.90;;;;;;5002375;28;90091;-33
2022/10/15 00:07:09;;;;;;;46.75;32.88;;;12.10;99.90;;;;;;5001694;28;90869;-32
2022/10/15 00:09:35;;;;;;;49.38;32.17;;;12.00;99.90;;;;;;5003100;28;88653;-31
2022/10/15 00:12:01;;;;;;;52.10;34.67;;;12.10;99.90;;;;;;4984235;28;88001;-32
2022/10/15 00:14:26;;;;;;;72.03;40.97;;;12.00;99.90;;;;;;5001879;28;90206;-33
2022/10/15 00:16:52;;;;;;;56.88;38.30;;;12.00;99.90;;;;;;5002574;28;89492;-33
2022/10/15 00:19:17;;;;;;;55.65;38.85;;;12.00;99.90;;;;;;5002301;28;88698;-32
2022/10/15 00:21:43;;;;;;;73.85;38.83;;;12.00;99.90;;;;;;5002385;28;88244;-32
2022/10/15 00:24:08;;;;;;;65.07;39.60;;;12.00;99.90;;;;;;5002057;28;90160;-33
2022/10/15 00:26:34;;;;;;;58.17;37.35;;;12.00;99.90;;;;;;5002143;28;90051;-31
2022/10/15 00:29:02;;;;;;;96.38;41.35;;;12.00;99.90;;;;;;5001644;28;88896;-31
2022/10/15 00:31:29;;;;;;;77.85;38.95;;;12.00;99.90;;;;;;4984182;28;89461;-30
2022/10/15 00:33:56;;;;;;;73.57;39.95;;;12.00;99.90;;;;;;5001624;28;90277;-35
2022/10/15 00:36:24;;;;;;;71.50;33.87;;;11.90;99.90;;;;;;5002523;28;90070;-32
2022/10/15 00:38:50;;;;;;;;;;;11.90;99.90;;;;;;5000637;28;88861;-34
2022/10/15 00:41:19;;;;;;;65.15;36.40;;;11.90;99.90;;;;;;5004032;28;88070;-32
2022/10/15 00:43:46;;;;;;;94.47;38.03;;;11.90;99.90;;;;;;5001168;28;90139;-35
2022/10/15 00:46:34;;;;;;;78.97;37.00;;;11.90;99.90;;;;;;5002246;28;90643;-35
2022/10/15 00:49:18;;;;;;;76.38;37.15;;;11.90;99.90;;;;;;5001722;28;89212;-32
2022/10/15 00:51:49;;;;;;;57.83;31.90;;;11.80;99.90;;;;;;4987489;28;87719;-35
2022/10/15 00:54:15;;;;;;;90.13;36.10;;;11.80;99.90;;;;;;5001727;28;90133;-33
2022/10/15 00:56:43;;;;;;;63.17;35.60;;;11.80;99.90;;;;;;5041862;22;90320;-34
2022/10/15 00:59:11;;;;;;;45.92;33.70;;;11.80;99.90;;;;;;5001869;28;87591;-35
2022/10/15 01:01:37;;;;;;;59.30;35.97;;;11.80;99.90;;;;;;5001757;28;88918;-35
2022/10/15 01:04:05;;;;;;;56.15;35.33;;;11.80;99.90;;;;;;5000572;28;91757;-34
2022/10/15 01:06:31;;;;;;;45.97;34.80;;;11.80;99.90;;;;;;5000824;28;89608;-35
2022/10/15 01:08:56;;;;;;;49.60;34.88;;;11.80;99.90;;;;;;5001986;28;87535;-33
2022/10/15 01:11:41;;;;;;;88.88;43.58;;;11.80;99.90;;;;;;5002054;28;87873;-33
2022/10/15 01:14:07;;;;;;;49.25;34.67;;;11.80;99.90;;;;;;4988714;28;89250;-35
2022/10/15 01:16:46;;;;;;;54.25;38.08;;;11.80;99.90;;;;;;5001579;28;89671;-33
2022/10/15 01:19:27;;;;;;;66.15;39.88;;;11.80;99.90;;;;;;4989216;28;89540;-33
2022/10/15 01:22:14;;;;;;;51.83;38.05;;;11.80;99.90;;;;;;5001853;28;88829;-36
2022/10/15 01:24:57;;;;;;;69.50;41.43;;;11.80;99.90;;;;;;5001078;28;89968;-35
2022/10/15 01:27:41;;;;;;;77.15;40.60;;;11.80;99.90;;;;;;5000589;28;89712;-33
2022/10/15 01:30:15;;;;;;;52.58;38.72;;;11.80;99.90;;;;;;5001787;28;88203;-35
2022/10/15 01:33:01;;;;;;;72.70;42.97;;;11.80;99.90;;;;;;4987176;28;87714;-33
2022/10/15 01:35:49;;;;;;;81.88;43.15;;;11.80;99.90;;;;;;5000771;28;90483;-33
2022/10/15 01:38:39;;;;;;;70.63;41.53;;;11.70;99.90;;;;;;5001065;28;89422;-36
2022/10/15 01:41:21;;;;;;;59.47;39.42;;;11.80;99.90;;;;;;5000930;28;90433;-36
2022/10/15 01:44:11;;;;;;;62.83;40.40;;;11.80;99.90;;;;;;5000956;28;87586;-32
2022/10/15 01:46:44;;;;;;;60.40;40.58;;;11.80;99.90;;;;;;4990635;28;89790;-33
2022/10/15 01:49:12;;;;;;;66.93;42.97;;;11.80;99.90;;;;;;5001007;28;89475;-35
2022/10/15 01:51:41;;;;;;;58.35;40.30;;;11.70;99.90;;;;;;5001069;28;89133;-33
2022/10/15 01:54:12;;;;;;;55.22;37.55;;;11.70;99.90;;;;;;5001119;28;89630;-31
2022/10/15 01:56:39;;;;;;;63.15;40.85;;;11.70;99.90;;;;;;5000446;28;90512;-34
2022/10/15 01:59:07;;;;;;;70.05;41.15;;;11.70;99.90;;;;;;5001092;28;90435;-34
2022/10/15 02:01:33;;;;;;;83.80;43.40;;;11.70;99.90;;;;;;5000712;28;87820;-33
2022/10/15 02:03:58;;;;;;;74.22;42.08;;;11.70;99.90;;;;;;5000722;28;87995;-34
2022/10/15 02:06:31;;;;;;;74.38;43.40;;;11.70;99.90;;;;;;5000974;28;91117;-32
2022/10/15 02:09:23;;;;;;;58.15;39.30;;;11.70;99.90;;;;;;5000092;28;89609;-36
2022/10/15 02:11:58;;;;;;;69.32;40.97;;;11.70;99.90;;;;;;5000190;28;88694;-33
2022/10/15 02:15:04;;;;;;;68.40;42.90;;;11.70;99.90;;;;;;5001113;28;87647;-34
2022/10/15 02:17:53;;;;;;;56.90;39.38;;;11.70;99.90;;;;;;4991280;28;90118;-34
2022/10/15 02:20:26;;;;;;;64.00;39.78;;;11.70;99.90;;;;;;4948203;28;89491;-33
2022/10/15 02:23:06;;;;;;;63.90;40.70;;;11.70;99.90;;;;;;5000593;28;87733;-32
2022/10/15 02:25:34;;;;;;;65.75;41.38;;;11.70;99.90;;;;;;4999717;28;88986;-33
2022/10/15 02:28:03;;;;;;;78.80;42.50;;;11.70;99.90;;;;;;4999893;28;90108;-33
2022/10/15 02:30:30;;;;;;;66.70;38.67;;;11.70;99.90;;;;;;5000570;28;89323;-35
2022/10/15 02:32:58;;;;;;;74.05;43.22;;;11.70;99.90;;;;;;5000639;28;88244;-32
2022/10/15 02:35:25;;;;;;;;;;;11.70;99.90;;;;;;5000794;28;89014;-32
2022/10/15 02:37:53;;;;;;;71.25;44.10;;;11.70;99.90;;;;;;5002503;28;90801;-33
2022/10/15 02:40:26;;;;;;;;;;;11.70;99.90;;;;;;5000104;28;89852;-32
2022/10/15 02:42:52;;;;;;;66.47;41.70;;;11.70;99.90;;;;;;5002607;28;88877;-35
2022/10/15 02:45:18;;;;;;;59.13;39.60;;;11.70;99.90;;;;;;5000544;28;88775;-35
2022/10/15 02:47:44;;;;;;;68.63;40.00;;;11.70;99.90;;;;;;5000165;28;88732;-34
2022/10/15 02:50:10;;;;;;;57.53;36.35;;;11.60;99.90;;;;;;4999838;28;89665;-35
2022/10/15 02:52:35;;;;;;;60.50;37.10;;;11.70;99.90;;;;;;5000097;28;89323;-35
2022/10/15 02:55:01;;;;;;;63.72;39.00;;;11.70;99.90;;;;;;4999676;28;89013;-34
2022/10/15 02:57:26;;;;;;;54.40;37.00;;;11.60;99.90;;;;;;4999943;28;90412;-36
2022/10/15 02:59:52;;;;;;;61.42;39.45;;;11.60;99.90;;;;;;4999927;28;89147;-32
2022/10/15 03:02:17;;;;;;;55.35;35.75;;;11.60;99.90;;;;;;4999561;28;88143;-34
2022/10/15 03:04:43;;;;;;;60.53;35.53;;;11.60;99.90;;;;;;4999779;28;89574;-35
2022/10/15 03:07:09;;;;;;;54.15;36.15;;;11.60;99.90;;;;;;4999152;28;90196;-32
2022/10/15 03:09:34;;;;;;;50.40;34.75;;;11.60;99.90;;;;;;4999758;28;90114;-35
2022/10/15 03:12:00;;;;;;;48.58;34.35;;;11.60;99.90;;;;;;4999821;28;89359;-33
2022/10/15 03:14:25;;;;;;;56.72;37.80;;;11.60;99.90;;;;;;5000089;28;89001;-34
2022/10/15 03:16:51;;;;;;;44.83;31.20;;;11.60;99.90;;;;;;4999698;28;89741;-31
2022/10/15 03:19:17;;;;;;;52.00;35.08;;;11.60;99.90;;;;;;4999208;28;89684;-32
2022/10/15 03:21:42;;;;;;;49.55;33.33;;;11.60;99.90;;;;;;4999166;28;89572;-32
2022/10/15 03:24:08;;;;;;;57.38;35.80;;;11.60;99.90;;;;;;4999538;28;89048;-34
2022/10/15 03:26:33;;;;;;;55.85;35.80;;;11.60;99.90;;;;;;4999835;28;89216;-35
2022/10/15 03:28:59;;;;;;;52.70;35.67;;;11.50;99.90;;;;;;4999081;28;88659;-34
2022/10/15 03:31:24;;;;;;;46.92;31.70;;;11.60;99.90;;;;;;4999362;28;88835;-35
2022/10/15 03:33:50;;;;;;;56.20;36.80;;;11.60;99.90;;;;;;4981554;28;88812;-33
2022/10/15 03:36:16;;;;;;;55.97;37.55;;;11.60;99.90;;;;;;5001357;28;90519;-31
2022/10/15 03:38:41;;;;;;;53.53;34.33;;;11.60;99.90;;;;;;5003281;28;89662;-34
2022/10/15 03:41:07;;;;;;;48.15;34.13;;;11.60;99.90;;;;;;5002826;28;87578;-32
2022/10/15 03:43:32;;;;;;;53.55;35.15;;;11.50;99.90;;;;;;5003130;28;88839;-33
2022/10/15 03:46:03;;;;;;;51.58;32.83;;;11.50;99.90;;;;;;5002950;28;90431;-34
2022/10/15 03:48:29;;;;;;;47.90;31.00;;;11.60;99.90;;;;;;5002795;28;91260;-32
2022/10/15 03:50:54;;;;;;;53.90;35.88;;;11.60;99.90;;;;;;5002233;28;87602;-33
2022/10/15 03:53:20;;;;;;;51.50;33.53;;;11.60;99.90;;;;;;5002824;28;88860;-32
2022/10/15 03:55:46;;;;;;;53.13;35.53;;;11.60;99.90;;;;;;5001331;28;90250;-33
2022/10/15 03:58:11;;;;;;;43.80;32.90;;;11.50;99.90;;;;;;5002708;28;90133;-32
2022/10/15 04:00:41;;;;;;;51.28;34.67;;;11.50;99.90;;;;;;5002722;28;88911;-32
2022/10/15 04:03:07;;;;;;;55.72;36.25;;;11.50;99.90;;;;;;5002856;28;89507;-35
2022/10/15 04:05:32;;;;;;;45.53;34.10;;;11.60;99.90;;;;;;5002526;28;90332;-37
2022/10/15 04:07:58;;;;;;;51.30;35.70;;;11.50;99.90;;;;;;5002288;28;89438;-34
2022/10/15 04:10:24;;;;;;;53.80;34.10;;;11.50;99.90;;;;;;5002044;28;89907;-33
2022/10/15 04:12:50;;;;;;;54.33;34.17;;;11.50;99.90;;;;;;5002840;28;90497;-31
2022/10/15 04:15:16;;;;;;;41.72;32.85;;;11.50;99.90;;;;;;4988336;28;90161;-32
2022/10/15 04:17:41;;;;;;;52.55;35.40;;;11.50;99.90;;;;;;5002093;28;89328;-33
2022/10/15 04:20:07;;;;;;;44.45;32.72;;;11.50;99.90;;;;;;5002662;28;88245;-32
2022/10/15 04:22:33;;;;;;;52.50;34.67;;;11.50;99.90;;;;;;5002119;28;88644;-31
2022/10/15 04:24:59;;;;;;;53.08;36.50;;;11.50;99.90;;;;;;5002039;28;89948;-35
2022/10/15 04:27:24;;;;;;;52.83;36.53;;;11.50;99.90;;;;;;5001447;28;88667;-35
2022/10/15 04:29:50;;;;;;;54.78;36.47;;;11.50;99.90;;;;;;5002041;28;89377;-35
2022/10/15 04:32:16;;;;;;;49.70;33.65;;;11.50;99.90;;;;;;4984037;28;90397;-33
2022/10/15 04:34:42;;;;;;;53.00;35.15;;;11.50;99.90;;;;;;5001675;28;90409;-34
2022/10/15 04:37:07;;;;;;;50.45;35.30;;;11.50;99.90;;;;;;5002461;28;89320;-33
2022/10/15 04:39:33;;;;;;;51.30;36.20;;;11.40;99.90;;;;;;5001680;28;88789;-34
2022/10/15 04:41:59;;;;;;;53.20;35.10;;;11.50;99.90;;;;;;5002626;28;89487;-32
2022/10/15 04:44:24;;;;;;;50.58;35.05;;;11.40;99.90;;;;;;5001923;28;89386;-34
2022/10/15 04:46:50;;;;;;;53.38;33.90;;;11.40;99.90;;;;;;5000593;28;91138;-32
2022/10/15 04:49:15;;;;;;;45.03;33.38;;;11.40;99.90;;;;;;5002301;28;88336;-32
2022/10/15 04:51:41;;;;;;;52.72;34.75;;;11.40;99.90;;;;;;5001086;28;89240;-34
2022/10/15 04:54:06;;;;;;;47.85;33.20;;;11.40;99.90;;;;;;5002383;28;90223;-32
2022/10/15 04:56:32;;;;;;;45.30;31.50;;;11.40;99.90;;;;;;5001356;28;89986;-34
2022/10/15 04:58:58;;;;;;;47.05;34.67;;;11.40;99.90;;;;;;5001697;28;87658;-34
2022/10/15 05:01:23;;;;;;;45.88;32.80;;;11.30;99.90;;;;;;4983065;28;87751;-32
2022/10/15 05:03:49;;;;;;;43.90;31.40;;;11.30;99.90;;;;;;5001432;28;90237;-34
2022/10/15 05:06:17;;;;;;;49.80;33.78;;;11.40;99.90;;;;;;5001493;28;89743;-32
2022/10/15 05:08:44;;;;;;;47.83;33.75;;;11.30;99.90;;;;;;4983701;28;87542;-33
2022/10/15 05:11:19;;;;;;;50.38;34.22;;;11.30;99.90;;;;;;5000601;28;87618;-34
2022/10/15 05:13:45;;;;;;;44.95;35.58;;;11.30;99.90;;;;;;5001374;28;90606;-33
2022/10/15 05:16:15;;;;;;;47.78;34.78;;;11.30;99.90;;;;;;5001224;28;89534;-35
2022/10/15 05:18:42;;;;;;;47.95;33.90;;;11.30;99.90;;;;;;5000511;28;88139;-35
2022/10/15 05:21:09;;;;;;;51.75;36.17;;;11.30;99.90;;;;;;5000952;28;87570;-32
2022/10/15 05:23:35;;;;;;;51.33;34.65;;;11.30;99.90;;;;;;5001132;28;89759;-35
2022/10/15 05:26:03;;;;;;;50.47;38.05;;;11.30;99.90;;;;;;5000763;28;89531;-32
2022/10/15 05:28:29;;;;;;;49.17;37.28;;;11.30;99.90;;;;;;5001108;28;89050;-34
2022/10/15 05:30:55;;;;;;;43.08;35.25;;;11.30;99.90;;;;;;5001026;28;89013;-35
2022/10/15 05:33:21;;;;;;;49.83;36.22;;;11.30;99.90;;;;;;5000864;28;92014;-32
2022/10/15 05:35:47;;;;;;;54.08;37.50;;;11.30;99.90;;;;;;5004238;28;90059;-32
2022/10/15 05:38:13;;;;;;;57.42;36.38;;;11.30;99.90;;;;;;5008194;28;88134;-31
2022/10/15 05:40:38;;;;;;;57.47;37.15;;;11.30;99.90;;;;;;5001074;28;87622;-33
2022/10/15 05:43:04;;;;;;;56.65;36.38;;;11.30;99.90;;;;;;5000988;28;90677;-34
2022/10/15 05:45:29;;;;;;;55.45;37.67;;;11.30;99.90;;;;;;5000576;28;90759;-35
2022/10/15 05:47:55;;;;;;;50.58;35.63;;;11.30;99.90;;;;;;5000855;28;91312;-34
2022/10/15 05:50:22;;;;;;;55.45;37.30;;;11.30;99.90;;;;;;5001605;28;89374;-32
2022/10/15 05:52:47;;;;;;;53.65;37.08;;;11.30;99.90;;;;;;5000395;28;90319;-32
2022/10/15 05:55:13;;;;;;;61.47;36.50;;;11.30;99.90;;;;;;5000450;28;91216;-33
2022/10/15 05:57:39;;;;;;;58.58;37.63;;;11.30;99.90;;;;;;5000694;28;88094;-34
2022/10/15 06:00:05;;;;;;;57.92;41.08;;;11.30;99.90;;;;;;4999572;28;89836;-32
2022/10/15 06:02:31;;;;;;;59.10;38.97;;;11.30;99.90;;;;;;5000674;28;92151;-35
2022/10/15 06:04:57;;;;;;;60.67;39.03;;;11.30;99.90;;;;;;5000130;28;89837;-35
2022/10/15 06:07:22;;;;;;;60.13;41.72;;;11.30;99.90;;;;;;5000522;28;89180;-32
2022/10/15 06:09:48;;;;;;;55.42;36.75;;;11.30;99.90;;;;;;5000897;28;88253;-31
2022/10/15 06:12:13;;;;;;;56.13;38.35;;;11.30;99.90;;;;;;5001028;28;92184;-33
2022/10/15 06:14:39;;;;;;;54.80;38.00;;;11.40;99.90;;;;;;5000097;28;91101;-37
2022/10/15 06:17:05;;;;;;;58.70;38.78;;;11.40;99.90;;;;;;5000111;28;90055;-33
2022/10/15 06:19:30;;;;;;;53.78;39.58;;;11.30;99.90;;;;;;5000904;28;87803;-35
2022/10/15 06:21:56;;;;;;;65.28;41.45;;;11.40;99.90;;;;;;5000336;28;88948;-32
2022/10/15 06:24:22;;;;;;;56.85;40.58;;;11.40;99.90;;;;;;5000410;28;89442;-33
2022/10/15 06:26:48;;;;;;;57.22;40.75;;;11.40;99.90;;;;;;4997703;28;89606;-33
2022/10/15 06:29:13;;;;;;;62.13;39.40;;;11.40;99.90;;;;;;4997772;28;89978;-35
2022/10/15 06:31:39;;;;;;;57.33;40.92;;;11.40;99.90;;;;;;4998090;28;90084;-32
2022/10/15 06:34:04;;;;;;;50.20;36.83;;;11.40;99.90;;;;;;4997457;28;90555;-32
2022/10/15 06:36:30;;;;;;;59.10;43.42;;;11.40;99.90;;;;;;4998583;28;88249;-35
2022/10/15 06:38:55;;;;;;;55.63;37.38;;;11.40;99.90;;;;;;4995545;28;90021;-32
2022/10/15 06:41:21;;;;;;;60.20;39.30;;;11.40;99.90;;;;;;4997356;28;90253;-32
2022/10/15 06:43:50;;;;;;;63.00;40.97;;;11.50;99.90;;;;;;4997472;28;90636;-34
2022/10/15 06:46:16;;;;;;;52.50;37.67;;;11.50;99.90;;;;;;4996723;28;90276;-33
2022/10/15 06:48:41;;;;;;;64.00;42.03;;;11.50;99.90;;;;;;4978874;28;87755;-33
2022/10/15 06:51:07;;;;;;;63.88;41.08;;;11.60;99.90;;;;;;4997348;28;93027;-34
2022/10/15 06:53:33;;;;;;;61.53;40.00;;;11.60;99.90;;;;;;4997214;28;89519;-33
2022/10/15 06:56:00;;;;;;;54.42;37.80;;;11.60;99.90;;;;;;4996298;28;88703;-35
2022/10/15 06:58:26;;;;;;;55.13;37.53;;;11.70;99.90;;;;;;4997870;28;90054;-34
2022/10/15 07:00:52;;;;;;;57.90;39.97;;;11.70;99.90;;;;;;4997060;28;90255;-33
2022/10/15 07:03:18;;;;;;;56.70;36.22;;;11.70;99.90;;;;;;4996765;28;89941;-35
2022/10/15 07:05:43;;;;;;;67.43;41.50;;;11.70;99.90;;;;;;4996798;28;89682;-34
2022/10/15 07:08:09;;;;;;;57.80;38.45;;;11.70;99.90;;;;;;4996881;28;88902;-33
2022/10/15 07:10:34;;;;;;;45.38;36.70;;;11.80;99.90;;;;;;4996708;28;90043;-35
2022/10/15 07:13:01;;;;;;;59.25;36.70;;;11.80;99.90;;;;;;4996869;28;90450;-34
2022/10/15 07:15:27;;;;;;;49.13;36.20;;;11.80;99.90;;;;;;4997277;28;88262;-32
2022/10/15 07:18:00;;;;;;;62.70;40.08;;;11.90;99.90;;;;;;4996928;28;88513;-33
2022/10/15 07:20:27;;;;;;;51.90;39.30;;;11.90;99.90;;;;;;4996249;28;90316;-32
2022/10/15 07:22:57;;;;;;;57.20;35.13;;;12.00;99.90;;;;;;4978463;28;90766;-32
2022/10/15 07:25:24;;;;;;;44.67;35.38;;;12.00;99.90;;;;;;4996891;28;88595;-33
2022/10/15 07:27:49;;;;;;;50.78;36.38;;;12.00;99.90;;;;;;4996932;28;89519;-34
2022/10/15 07:30:15;;;;;;;52.08;37.90;;;12.10;99.90;;;;;;4997309;28;90058;-34
2022/10/15 07:32:41;;;;;;;51.63;36.67;;;12.10;99.90;;;;;;4996639;28;90085;-31
2022/10/15 07:35:07;;;;;;;48.58;36.38;;;12.20;99.90;;;;;;4997327;28;88586;-33
2022/10/15 07:37:33;;;;;;;54.97;37.15;;;12.20;99.90;;;;;;4996779;28;89107;-34
2022/10/15 07:39:59;;;;;;;44.05;34.15;;;12.30;99.90;;;;;;4996124;28;90594;-34
2022/10/15 07:42:25;;;;;;;55.47;39.20;;;12.30;99.90;;;;;;4997198;28;89665;-32
2022/10/15 07:44:50;;;;;;;60.42;36.25;;;12.40;99.90;;;;;;4996293;28;88030;-34
2022/10/15 07:47:16;;;;;;;56.75;36.95;;;12.40;99.90;;;;;;4997585;28;87606;-32
2022/10/15 07:49:42;;;;;;;51.05;37.13;;;12.50;99.90;;;;;;4996019;28;91325;-34
2022/10/15 07:52:07;;;;;;;53.03;37.97;;;12.50;99.90;;;;;;4996995;28;89677;-32
2022/10/15 07:54:33;;;;;;;55.40;35.13;;;12.50;99.90;;;;;;4979117;28;88360;-31
2022/10/15 07:56:59;;;;;;;56.63;37.95;;;12.50;99.90;;;;;;4996475;28;89473;-32
2022/10/15 07:59:25;;;;;;;47.58;37.08;;;12.60;99.90;;;;;;4997079;28;90221;-33
2022/10/15 08:01:51;;;;;;;63.15;40.95;;;12.70;99.90;;;;;;4996138;28;88581;-32
2022/10/15 08:04:19;;;;;;;49.25;36.67;;;12.80;99.90;;;;;;4996618;28;89262;-33
2022/10/15 08:06:45;;;;;;;49.22;37.85;;;12.90;99.90;;;;;;4996627;28;88828;-35
2022/10/15 08:09:10;;;;;;;43.65;34.33;;;13.00;99.90;;;;;;4996531;28;90360;-35
2022/10/15 08:11:36;;;;;;;48.05;36.92;;;13.10;99.90;;;;;;4996346;28;89484;-34
2022/10/15 08:14:02;;;;;;;52.28;37.47;;;13.10;99.90;;;;;;4996765;28;89237;-32
2022/10/15 08:16:28;;;;;;;55.85;37.95;;;13.10;99.90;;;;;;4996277;28;89714;-34
2022/10/15 08:18:53;;;;;;;46.75;37.38;;;13.10;99.90;;;;;;4996508;28;90185;-34
2022/10/15 08:21:19;;;;;;;51.17;36.53;;;13.10;99.90;;;;;;4996155;28;89681;-33
2022/10/15 08:23:45;;;;;;;56.60;41.08;;;13.10;99.90;;;;;;4999359;28;89816;-34
2022/10/15 08:26:10;;;;;;;58.58;41.60;;;13.20;99.90;;;;;;4999932;28;89654;-34
2022/10/15 08:28:36;;;;;;;55.40;38.78;;;13.20;99.90;;;;;;4999121;28;90057;-33
2022/10/15 08:31:02;;;;;;;48.10;38.00;;;13.20;99.90;;;;;;4982550;28;91193;-33
2022/10/15 08:33:28;;;;;;;48.15;37.17;;;13.30;99.90;;;;;;4999573;28;88481;-33
2022/10/15 08:35:54;;;;;;;45.95;36.53;;;13.40;99.90;;;;;;4982286;28;89897;-36
2022/10/15 08:38:20;;;;;;;46.00;36.15;;;13.50;99.90;;;;;;4999572;28;90365;-34
2022/10/15 08:40:48;;;;;;;54.22;38.78;;;13.60;99.90;;;;;;4999232;28;89684;-34
2022/10/15 08:43:21;;;;;;;49.08;35.95;;;13.60;99.90;;;;;;5000158;28;87542;-34
2022/10/15 08:45:50;;;;;;;54.05;38.47;;;13.70;99.90;;;;;;4999220;28;89274;-32
2022/10/15 08:48:43;;;;;;;49.40;39.45;;;13.80;99.90;;;;;;4999382;28;89649;-32
2022/10/15 08:51:45;;;;;;;42.15;33.03;;;13.90;99.90;;;;;;4999485;28;91813;-33
2022/10/15 08:54:15;;;;;;;45.10;35.72;;;14.00;99.90;;;;;;4994854;28;89653;-31
2022/10/15 08:56:48;;;;;;;44.45;33.25;;;14.00;99.90;;;;;;4999335;28;88927;-34
2022/10/15 08:59:26;;;;;;;50.20;35.03;;;14.00;99.90;;;;;;4999740;28;89995;-33
2022/10/15 09:02:09;;;;;;;46.28;36.38;;;14.10;99.90;;;;;;4987083;28;90524;-33
2022/10/15 09:04:54;;;;;;;49.47;35.50;;;14.10;99.90;;;;;;4999180;28;88489;-35
2022/10/15 09:07:31;;;;;;;47.17;37.03;;;14.10;99.90;;;;;;5000027;28;88196;-32
2022/10/15 09:10:20;;;;;;;46.65;34.72;;;14.10;99.90;;;;;;4998478;28;90006;-32
2022/10/15 09:13:00;;;;;;;43.05;35.38;;;14.10;99.90;;;;;;4998569;28;88480;-33
2022/10/15 09:15:29;;;;;;;54.75;38.50;;;14.20;99.90;;;;;;4986262;28;88961;-31
2022/10/15 09:17:55;;;;;;;40.78;33.42;;;14.10;99.90;;;;;;4999198;28;89485;-30
2022/10/15 09:20:33;;;;;;;38.50;31.05;;;14.10;99.90;;;;;;4998408;28;90506;-34
2022/10/15 09:22:59;;;;;;;41.03;31.65;;;14.10;99.90;;;;;;4999011;28;90085;-31
2022/10/15 09:25:33;;;;;;;39.63;31.38;;;14.10;99.90;;;;;;4999109;28;88627;-31
2022/10/15 09:28:02;;;;;;;35.88;29.20;;;14.10;99.90;;;;;;4998677;28;88301;-33
2022/10/15 09:30:45;;;;;;;41.35;29.67;;;14.10;99.90;;;;;;4998781;28;89046;-33
2022/10/15 09:33:32;;;;;;;48.05;31.88;;;14.00;99.90;;;;;;4998779;28;90030;-32
2022/10/15 09:36:18;;;;;;;42.70;33.22;;;13.90;99.90;;;;;;4986737;28;88889;-34
2022/10/15 09:39:14;;;;;;;42.55;30.80;;;13.80;99.90;;;;;;4997640;28;88378;-32
2022/10/15 09:41:52;;;;;;;47.28;33.33;;;13.70;99.90;;;;;;4998289;28;90333;-34
2022/10/15 09:44:23;;;;;;;46.60;31.67;;;13.60;99.90;;;;;;4998162;28;90039;-33
2022/10/15 09:46:49;;;;;;;40.20;31.05;;;13.60;99.90;;;;;;4998212;28;89867;-34
2022/10/15 09:49:19;;;;;;;39.97;29.75;;;13.60;99.90;;;;;;4998929;28;89746;-31
2022/10/15 09:51:53;;;;;;;46.50;31.60;;;13.60;99.90;;;;;;4998942;28;90361;-33
2022/10/15 09:54:55;;;;;;;44.03;31.15;;;13.60;99.90;;;;;;4998408;28;89186;-33
2022/10/15 09:57:22;;;;;;;42.42;31.73;;;13.50;99.90;;;;;;4998784;28;89767;-34
2022/10/15 10:00:02;;;;;;;48.97;35.20;;;13.50;99.90;;;;;;4998010;28;88652;-34
2022/10/15 10:02:28;;;;;;;41.30;31.15;;;13.60;99.90;;;;;;5007844;28;89065;-33
2022/10/15 10:04:54;;;;;;;47.50;33.05;;;13.50;99.90;;;;;;4997730;28;89765;-32
2022/10/15 10:07:37;;;;;;;42.80;28.75;;;13.50;99.90;;;;;;4997512;28;88598;-32
2022/10/15 10:10:24;;;;;;;44.05;31.77;;;13.60;99.90;;;;;;4985444;28;89627;-31
2022/10/15 10:12:51;;;;;;;48.78;31.17;;;13.50;99.90;;;;;;4997521;28;92875;-35
2022/10/15 10:15:40;;;;;;;49.42;31.13;;;13.50;99.90;;;;;;4998739;28;89518;-32
2022/10/15 10:18:20;;;;;;;40.08;29.52;;;13.50;99.90;;;;;;4998174;28;90265;-30
2022/10/15 10:21:01;;;;;;;40.08;27.60;;;13.60;99.90;;;;;;4996904;28;88371;-33
2022/10/15 10:23:38;;;;;;;45.60;31.73;;;13.60;99.90;;;;;;4995492;28;90848;-33
2022/10/15 10:26:07;;;;;;;35.30;27.30;;;13.70;99.90;;;;;;4997915;28;89602;-34
2022/10/15 10:28:35;;;;;;;41.95;27.50;;;13.70;99.90;;;;;;4998195;28;90038;-33
2022/10/15 10:31:05;;;;;;;36.40;26.37;;;13.70;99.90;;;;;;4997881;28;88673;-31
2022/10/15 10:33:44;;;;;;;36.47;26.60;;;13.70;99.90;;;;;;4998148;28;90156;-33
2022/10/15 10:36:35;;;;;;;32.35;25.38;;;13.80;99.90;;;;;;4997974;28;89661;-34
2022/10/15 10:39:13;;;;;;;33.50;22.88;;;13.90;99.90;;;;;;4996579;28;90026;-34
2022/10/15 10:41:51;;;;;;;34.27;26.30;;;14.00;99.90;;;;;;4998021;28;89897;-31
2022/10/15 10:44:20;;;;;;;33.40;25.58;;;14.00;99.90;;;;;;5000480;28;90128;-32
2022/10/15 10:47:04;;;;;;;32.65;23.88;;;14.10;99.90;;;;;;4996702;28;90228;-35
2022/10/15 10:49:32;;;;;;;30.75;22.17;;;14.10;99.90;;;;;;4996970;28;88944;-33
2022/10/15 10:51:58;;;;;;;29.25;21.50;;;14.20;99.90;;;;;;4997170;28;87589;-31
2022/10/15 10:54:25;;;;;;;35.88;25.52;;;14.30;99.90;;;;;;4997662;28;90328;-33
2022/10/15 10:56:52;;;;;;;31.17;22.58;;;14.30;99.90;;;;;;4996107;28;89311;-33
2022/10/15 10:59:33;;;;;;;29.13;22.33;;;14.40;99.90;;;;;;4997746;28;89861;-35
2022/10/15 11:01:59;;;;;;;32.40;21.20;;;14.40;99.90;;;;;;4997250;28;87974;-32
2022/10/15 11:04:31;;;;;;;34.85;22.98;;;14.50;99.90;;;;;;4997496;28;89200;-33
2022/10/15 11:06:56;;;;;;;28.55;21.45;;;14.60;99.90;;;;;;4997180;28;90029;-32
2022/10/15 11:09:42;;;;;;;29.90;22.80;;;14.70;99.90;;;;;;4997621;28;88436;-34
2022/10/15 11:12:29;;;;;;;26.52;20.35;;;14.80;99.90;;;;;;4997783;28;87672;-34
2022/10/15 11:15:13;;;;;;;33.28;21.17;;;15.00;99.90;;;;;;4996754;28;90547;-34
2022/10/15 11:18:01;;;;;;;26.13;19.35;;;15.10;99.90;;;;;;4990073;28;89914;-34
2022/10/15 11:20:49;;;;;;;30.13;20.35;;;15.10;99.90;;;;;;4996955;28;88996;-34
2022/10/15 11:23:26;;;;;;;20.83;17.63;;;15.10;99.90;;;;;;4997981;28;87919;-34
2022/10/15 11:26:16;;;;;;;23.42;18.02;;;15.10;99.90;;;;;;4997006;28;92315;-31
2022/10/15 11:28:58;;;;;;;24.25;19.27;;;15.10;99.90;;;;;;4996903;28;90217;-30
2022/10/15 11:31:34;;;;;;;24.33;18.92;;;15.10;99.90;;;;;;4998637;28;88553;-31
2022/10/15 11:34:37;;;;;;;20.15;15.18;;;15.10;99.90;;;;;;4995506;28;87717;-33
2022/10/15 11:37:13;;;;;;;24.45;17.42;;;15.10;99.90;;;;;;4994916;28;90085;-31
2022/10/15 11:39:49;;;;;;;20.13;16.83;;;15.10;99.90;;;;;;4994857;28;89923;-31
2022/10/15 11:42:29;;;;;;;21.35;16.45;;;15.10;99.90;;;;;;5002461;28;89371;-32
2022/10/15 11:45:14;;;;;;;17.98;14.88;;;15.10;99.90;;;;;;4998987;28;90686;-32
2022/10/15 11:47:46;;;;;;;19.75;17.00;;;15.00;99.90;;;;;;4996040;28;90477;-35
2022/10/15 11:50:26;;;;;;;21.08;16.27;;;15.10;99.90;;;;;;4997073;28;89493;-34
2022/10/15 11:53:22;;;;;;;19.33;16.17;;;15.10;99.90;;;;;;4997249;28;88385;-32
2022/10/15 11:56:00;;;;;;;20.27;15.02;;;15.10;99.90;;;;;;4990000;28;89755;-32
2022/10/15 11:58:37;;;;;;;19.67;15.02;;;15.20;99.90;;;;;;4998102;28;90486;-32
2022/10/15 12:01:22;;;;;;;18.40;13.90;;;15.30;99.90;;;;;;4999514;28;90819;-33
2022/10/15 12:03:53;;;;;;;18.63;14.75;;;15.20;99.90;;;;;;4999679;28;88862;-33
2022/10/15 12:06:24;;;;;;;15.55;13.77;;;15.20;99.90;;;;;;5000092;28;88058;-31
2022/10/15 12:08:52;;;;;;;17.98;14.77;;;15.20;99.90;;;;;;4998059;28;90337;-31
2022/10/15 12:11:36;;;;;;;18.10;13.57;;;15.20;99.90;;;;;;4984566;28;89363;-35
2022/10/15 12:14:30;;;;;;;18.58;14.32;;;15.30;99.90;;;;;;5000434;28;88677;-33
2022/10/15 12:17:10;;;;;;;15.88;12.93;;;15.30;99.90;;;;;;4998877;28;89727;-31
2022/10/15 12:19:44;;;;;;;20.40;15.32;;;15.30;99.90;;;;;;4999227;28;90071;-31
2022/10/15 12:22:11;;;;;;;15.30;12.13;;;15.40;99.90;;;;;;4999833;28;89165;-32
2022/10/15 12:24:36;;;;;;;16.50;12.75;;;15.40;99.90;;;;;;4999568;28;88333;-33
2022/10/15 12:27:27;;;;;;;15.88;12.68;;;15.40;99.90;;;;;;4999420;28;89492;-35
2022/10/15 12:30:01;;;;;;;22.80;14.30;;;15.40;99.90;;;;;;4998330;28;90021;-33
2022/10/15 12:32:42;;;;;;;16.52;13.68;;;15.40;99.90;;;;;;4999044;28;89336;-34
2022/10/15 12:35:13;;;;;;;15.82;13.07;;;15.40;99.90;;;;;;4999066;28;88451;-33
2022/10/15 12:37:41;;;;;;;17.92;14.27;;;15.30;99.90;;;;;;4999979;28;90096;-35
2022/10/15 12:40:22;;;;;;;17.35;14.05;;;15.30;99.90;;;;;;4999289;28;90378;-32
2022/10/15 12:42:58;;;;;;;17.27;13.45;;;15.30;99.90;;;;;;4998341;28;89598;-33
2022/10/15 12:45:34;;;;;;;16.60;12.57;;;15.20;99.90;;;;;;4999769;28;87555;-34
2022/10/15 12:48:02;;;;;;;20.95;14.85;;;15.20;99.90;;;;;;4998899;28;88834;-32